Time;durP1;ratioP1;P1;durP2;ratioP2;P2;SDS_P1;SDS_P2;PMS_P1;PMS_P2;Temp;Humidity;BMP_temperature;BMP_pressure;BME280_temperature;BME280_humidity;BME280_pressure;Samples;Min_cycle;Max_cycle;Signal;HPM_P1;HPM_P2
2023/08/27 00:02:12;;;;;;;;;;;;;;;;;;4939358;28;20333;-92
2023/08/27 00:04:38;;;;;;;;;;;;;;;;;;4942052;28;19917;-94
2023/08/27 00:07:04;;;;;;;;;;;;;;;;;;4939758;29;19921;-91
2023/08/27 00:09:30;;;;;;;;;;;;;;;;;;4955930;28;20375;-92
2023/08/27 00:11:56;;;;;;;;;;;;;;;;;;4937970;29;19911;-92
2023/08/27 00:14:22;;;;;;;;;;;;;;;;;;4943126;28;19918;-91
2023/08/27 00:16:48;;;;;;;;;;;;;;;;;;4943138;29;19914;-91
2023/08/27 00:19:14;;;;;;;;;;;;;;;;;;4937708;29;19925;-92
2023/08/27 00:21:41;;;;;;;;;;;;;;;;;;4945925;28;20081;-92
2023/08/27 00:24:06;;;;;;;;;;;;;;;;;;4920770;29;20415;-92
2023/08/27 00:26:32;;;;;;;;;;;;;;;;;;4920635;29;19942;-93
2023/08/27 00:28:59;;;;;;;;;;;;;;;;;;4927459;29;19946;-96
2023/08/27 00:31:24;;;;;;;;;;;;;;;;;;4919926;29;19918;-95
2023/08/27 00:33:51;;;;;;;;;;;;;;;;;;4920567;29;20377;-96
2023/08/27 00:36:17;;;;;;;;;;;;;;;;;;4919512;29;19922;-95
2023/08/27 00:38:46;;;;;;;;;;;;;;;;;;4919797;29;19946;-96
2023/08/27 00:41:13;;;;;;;;;;;;;;;;;;4923665;29;20390;-96
2023/08/27 00:43:41;;;;;;;;;;;;;;;;;;4926536;29;19918;-95
2023/08/27 00:46:07;;;;;;;;;;;;;;;;;;4918225;29;20323;-95
2023/08/27 00:48:34;;;;;;;;;;;;;;;;;;4919751;29;19954;-96
2023/08/27 00:51:00;;;;;;;;;;;;;;;;;;4924383;29;19918;-94
2023/08/27 00:53:26;;;;;;;;;;;;;;;;;;4919154;29;19911;-95
2023/08/27 00:55:58;;;;;;;;;;;;;;;;;;4917637;29;20426;-94
2023/08/27 00:58:24;;;;;;;;;;;;;;;;;;4929810;29;19914;-96
2023/08/27 01:00:55;;;;;;;;;;;;;;;;;;4921134;29;19919;-95
2023/08/27 01:03:21;;;;;;;;;;;;;;;;;;4915672;29;20057;-95
2023/08/27 01:05:47;;;;;;;;;;;;;;;;;;4918143;29;19923;-96
2023/08/27 01:08:13;;;;;;;;;;;;;;;;;;4918753;29;19914;-94
2023/08/27 01:10:40;;;;;;;;;;;;;;;;;;4935764;29;19954;-95
2023/08/27 01:13:06;;;;;;;;;;;;;;;;;;4923508;29;19944;-95
2023/08/27 01:15:38;;;;;;;;;;;;;;;;;;4928287;29;20352;-95
2023/08/27 01:18:04;;;;;;;;;;;;;;;;;;4928938;29;19923;-96
2023/08/27 01:20:33;;;;;;;;;;;;;;;;;;4917465;29;19939;-96
2023/08/27 01:22:59;;;;;;;;;;;;;;;;;;4939894;28;19986;-95
2023/08/27 01:25:25;;;;;;;;;;;;;;;;;;4939025;28;19961;-96
2023/08/27 01:27:51;;;;;;;;;;;;;;;;;;4935172;28;20811;-95
2023/08/27 01:30:17;;;;;;;;;;;;;;;;;;4934205;28;19915;-94
2023/08/27 01:32:43;;;;;;;;;;;;;;;;;;4936581;28;19914;-93
2023/08/27 01:35:10;;;;;;;;;;;;;;;;;;4949173;28;19937;-95
2023/08/27 01:37:36;;;;;;;;;;;;;;;;;;4936194;28;19923;-95
2023/08/27 01:40:05;;;;;;;;;;;;;;;;;;4940582;28;19914;-94
2023/08/27 01:42:32;;;;;;;;;;;;;;;;;;4940480;29;19914;-95
2023/08/27 01:44:58;;;;;;;;;;;;;;;;;;4930194;29;19910;-92
2023/08/27 01:50:11;;;;;;;;;;;;;;;;;;4922275;28;19997;-95
2023/08/27 01:52:37;;;;;;;;;;;;;;;;;;4942456;28;19918;-94
2023/08/27 01:55:10;;;;;;;;;;;;;;;;;;4951531;28;19914;-94
2023/08/27 01:57:36;;;;;;;;;;;;;;;;;;4942230;28;19914;-95
2023/08/27 02:00:02;;;;;;;;;;;;;;;;;;4942235;29;19917;-95
2023/08/27 02:02:28;;;;;;;;;;;;;;;;;;4935395;28;19938;-96
2023/08/27 02:04:54;;;;;;;;;;;;;;;;;;4944545;29;19910;-96
2023/08/27 02:07:21;;;;;;;;;;;;;;;;;;4943012;28;19914;-94
2023/08/27 02:09:47;;;;;;;;;;;;;;;;;;4941066;29;19914;-96
2023/08/27 02:12:13;;;;;;;;;;;;;;;;;;4943475;28;19914;-96
2023/08/27 02:14:39;;;;;;;;;;;;;;;;;;4943215;28;19981;-95
2023/08/27 02:17:05;;;;;;;;;;;;;;;;;;4941453;29;19926;-95
2023/08/27 02:19:31;;;;;;;;;;;;;;;;;;4945385;28;20541;-96
2023/08/27 02:21:57;;;;;;;;;;;;;;;;;;4941452;28;19919;-96
2023/08/27 02:24:23;;;;;;;;;;;;;;;;;;4945249;28;19915;-96
2023/08/27 02:26:52;;;;;;;;;;;;;;;;;;4950285;28;19918;-94
2023/08/27 02:29:19;;;;;;;;;;;;;;;;;;4952963;28;19942;-96
2023/08/27 02:31:45;;;;;;;;;;;;;;;;;;4937702;28;20000;-95
2023/08/27 02:34:11;;;;;;;;;;;;;;;;;;4935978;28;19953;-95
2023/08/27 02:36:37;;;;;;;;;;;;;;;;;;4934769;28;19918;-94
2023/08/27 02:39:03;;;;;;;;;;;;;;;;;;4939904;28;19918;-95
2023/08/27 02:41:29;;;;;;;;;;;;;;;;;;4950042;28;19906;-94
2023/08/27 02:43:57;;;;;;;;;;;;;;;;;;4954549;28;19915;-95
2023/08/27 02:46:23;;;;;;;;;;;;;;;;;;4937249;28;19915;-96
2023/08/27 02:48:49;;;;;;;;;;;;;;;;;;4934118;29;19980;-96
2023/08/27 02:51:15;;;;;;;;;;;;;;;;;;4939073;29;22003;-96
2023/08/27 02:53:41;;;;;;;;;;;;;;;;;;4931492;28;19934;-96
2023/08/27 02:56:08;;;;;;;;;;;;;;;;;;4934643;28;19919;-93
2023/08/27 02:58:34;;;;;;;;;;;;;;;;;;4933367;29;19915;-96
2023/08/27 03:00:59;;;;;;;;;;;;;;;;;;4939221;28;19915;-95
2023/08/27 03:03:26;;;;;;;;;;;;;;;;;;4933216;28;19920;-94
2023/08/27 03:05:52;;;;;;;;;;;;;;;;;;4938465;29;19936;-95
2023/08/27 03:08:18;;;;;;;;;;;;;;;;;;4932515;29;19929;-95
2023/08/27 03:10:44;;;;;;;;;;;;;;;;;;4930099;28;19925;-95
2023/08/27 03:13:10;;;;;;;;;;;;;;;;;;4934631;28;20403;-95
2023/08/27 03:15:35;;;;;;;;;;;;;;;;;;4932070;28;19914;-94
2023/08/27 03:18:03;;;;;;;;;;;;;;;;;;4932657;29;19926;-93
2023/08/27 03:20:32;;;;;;;;;;;;;;;;;;4946138;28;19922;-96
2023/08/27 03:22:58;;;;;;;;;;;;;;;;;;4935015;28;19957;-93
2023/08/27 03:25:24;;;;;;;;;;;;;;;;;;4927137;28;20021;-94
2023/08/27 03:27:50;;;;;;;;;;;;;;;;;;4931963;28;19941;-95
2023/08/27 03:30:16;;;;;;;;;;;;;;;;;;4938672;28;19914;-96
2023/08/27 03:32:47;;;;;;;;;;;;;;;;;;4933413;29;19914;-95
2023/08/27 03:35:13;;;;;;;;;;;;;;;;;;4930612;29;20545;-96
2023/08/27 03:37:39;;;;;;;;;;;;;;;;;;4952052;28;19922;-95
2023/08/27 03:40:06;;;;;;;;;;;;;;;;;;4929966;29;19915;-95
2023/08/27 03:42:32;;;;;;;;;;;;;;;;;;4936943;29;19921;-94
2023/08/27 03:44:58;;;;;;;;;;;;;;;;;;4935958;28;20178;-94
2023/08/27 03:47:25;;;;;;;;;;;;;;;;;;4937734;29;19953;-95
2023/08/27 03:49:50;;;;;;;;;;;;;;;;;;4932709;28;19911;-94
2023/08/27 03:52:16;;;;;;;;;;;;;;;;;;4938023;28;19917;-94
2023/08/27 03:54:43;;;;;;;;;;;;;;;;;;4930540;28;19914;-93
2023/08/27 03:57:08;;;;;;;;;;;;;;;;;;4933560;29;20644;-93
2023/08/27 03:59:34;;;;;;;;;;;;;;;;;;4932822;28;19915;-94
2023/08/27 04:02:01;;;;;;;;;;;;;;;;;;4936382;28;19914;-93
2023/08/27 04:04:27;;;;;;;;;;;;;;;;;;4930527;28;19914;-95
2023/08/27 04:06:55;;;;;;;;;;;;;;;;;;4933674;29;19918;-91
2023/08/27 04:09:21;;;;;;;;;;;;;;;;;;4929388;29;19975;-93
2023/08/27 04:11:47;;;;;;;;;;;;;;;;;;4936836;29;19950;-92
2023/08/27 04:14:13;;;;;;;;;;;;;;;;;;4930750;29;19969;-93
2023/08/27 04:16:39;;;;;;;;;;;;;;;;;;4928103;29;19915;-92
2023/08/27 04:19:05;;;;;;;;;;;;;;;;;;4930836;28;19988;-92
2023/08/27 04:21:31;;;;;;;;;;;;;;;;;;4932180;28;19922;-93
2023/08/27 04:23:57;;;;;;;;;;;;;;;;;;4935340;29;20513;-92
2023/08/27 04:26:24;;;;;;;;;;;;;;;;;;4931316;29;20002;-93
2023/08/27 04:28:50;;;;;;;;;;;;;;;;;;4935117;29;20574;-93
2023/08/27 04:31:16;;;;;;;;;;;;;;;;;;4939985;29;20430;-93
2023/08/27 04:33:42;;;;;;;;;;;;;;;;;;4931992;29;20192;-93
2023/08/27 04:36:14;;;;;;;;;;;;;;;;;;4933485;28;19946;-92
2023/08/27 04:38:40;;;;;;;;;;;;;;;;;;4932815;28;20430;-92
2023/08/27 04:41:06;;;;;;;;;;;;;;;;;;4938591;29;19914;-93
2023/08/27 04:43:32;;;;;;;;;;;;;;;;;;4931671;29;19910;-93
2023/08/27 04:45:58;;;;;;;;;;;;;;;;;;4936891;29;19911;-93
2023/08/27 04:48:24;;;;;;;;;;;;;;;;;;4937633;29;19925;-93
2023/08/27 04:50:50;;;;;;;;;;;;;;;;;;4929597;29;19935;-92
2023/08/27 04:53:17;;;;;;;;;;;;;;;;;;4951607;28;20639;-93
2023/08/27 04:55:43;;;;;;;;;;;;;;;;;;4933779;29;19941;-92
2023/08/27 04:58:09;;;;;;;;;;;;;;;;;;4936310;28;19915;-93
2023/08/27 05:00:35;;;;;;;;;;;;;;;;;;4936656;28;19914;-94
2023/08/27 05:03:04;;;;;;;;;;;;;;;;;;4933127;28;19914;-93
2023/08/27 05:05:30;;;;;;;;;;;;;;;;;;4936558;29;20549;-93
2023/08/27 05:07:56;;;;;;;;;;;;;;;;;;4933681;28;19965;-93
2023/08/27 05:10:22;;;;;;;;;;;;;;;;;;4928587;28;20012;-93
2023/08/27 05:12:48;;;;;;;;;;;;;;;;;;4927198;29;19914;-92
2023/08/27 05:15:16;;;;;;;;;;;;;;;;;;4929600;29;19915;-92
2023/08/27 05:17:42;;;;;;;;;;;;;;;;;;4933520;28;20013;-94
2023/08/27 05:20:09;;;;;;;;;;;;;;;;;;4944649;28;20402;-93
2023/08/27 05:22:35;;;;;;;;;;;;;;;;;;4936051;28;19918;-96
2023/08/27 05:25:01;;;;;;;;;;;;;;;;;;4936307;29;20428;-94
2023/08/27 05:27:27;;;;;;;;;;;;;;;;;;4936233;29;19966;-93
2023/08/27 05:29:53;;;;;;;;;;;;;;;;;;4936367;29;19957;-94
2023/08/27 05:32:19;;;;;;;;;;;;;;;;;;4932103;28;19914;-92
2023/08/27 05:34:45;;;;;;;;;;;;;;;;;;4931418;29;19917;-94
2023/08/27 05:37:11;;;;;;;;;;;;;;;;;;4932533;28;19926;-93
2023/08/27 05:39:38;;;;;;;;;;;;;;;;;;4930689;29;19993;-93
2023/08/27 05:42:04;;;;;;;;;;;;;;;;;;4927403;28;19911;-94
2023/08/27 05:44:30;;;;;;;;;;;;;;;;;;4932424;29;19916;-95
2023/08/27 05:46:56;;;;;;;;;;;;;;;;;;4925851;28;19918;-96
2023/08/27 05:49:22;;;;;;;;;;;;;;;;;;4926670;28;19919;-95
2023/08/27 05:51:47;;;;;;;;;;;;;;;;;;4926086;28;19918;-95
2023/08/27 05:54:13;;;;;;;;;;;;;;;;;;4930568;29;19922;-95
2023/08/27 05:56:40;;;;;;;;;;;;;;;;;;4929843;28;19918;-92
2023/08/27 05:59:06;;;;;;;;;;;;;;;;;;4929023;28;20512;-93
2023/08/27 06:01:32;;;;;;;;;;;;;;;;;;4925974;29;19911;-93
2023/08/27 06:03:58;;;;;;;;;;;;;;;;;;4947275;28;19979;-94
2023/08/27 06:06:24;;;;;;;;;;;;;;;;;;4933763;28;19914;-92
2023/08/27 06:08:50;;;;;;;;;;;;;;;;;;4931353;28;19910;-93
2023/08/27 06:11:16;;;;;;;;;;;;;;;;;;4929801;29;19914;-92
2023/08/27 06:13:42;;;;;;;;;;;;;;;;;;4925722;28;19910;-94
2023/08/27 06:16:08;;;;;;;;;;;;;;;;;;4931730;29;19921;-93
2023/08/27 06:18:34;;;;;;;;;;;;;;;;;;4925514;29;19918;-93
2023/08/27 06:21:00;;;;;;;;;;;;;;;;;;4929782;29;19910;-93
2023/08/27 06:23:27;;;;;;;;;;;;;;;;;;4945374;28;19937;-93
2023/08/27 06:25:54;;;;;;;;;;;;;;;;;;4933240;28;20009;-93
2023/08/27 06:28:20;;;;;;;;;;;;;;;;;;4931766;28;20489;-91
2023/08/27 06:30:46;;;;;;;;;;;;;;;;;;4934131;28;19961;-92
2023/08/27 06:33:12;;;;;;;;;;;;;;;;;;4934015;28;19962;-91
2023/08/27 06:35:38;;;;;;;;;;;;;;;;;;4927879;28;19918;-92
2023/08/27 06:38:04;;;;;;;;;;;;;;;;;;4932423;29;20572;-92
2023/08/27 06:40:31;;;;;;;;;;;;;;;;;;4932163;28;19945;-92
2023/08/27 06:42:57;;;;;;;;;;;;;;;;;;4929238;28;19962;-91
2023/08/27 06:45:23;;;;;;;;;;;;;;;;;;4938598;28;19918;-92
2023/08/27 06:47:49;;;;;;;;;;;;;;;;;;4936810;28;19974;-91
2023/08/27 06:50:15;;;;;;;;;;;;;;;;;;4934823;28;20009;-93
2023/08/27 06:52:44;;;;;;;;;;;;;;;;;;4933762;29;20337;-91
2023/08/27 06:55:13;;;;;;;;;;;;;;;;;;4932405;29;19930;-92
2023/08/27 06:58:08;;;;;;;;;;;;;;;;;;4952419;28;19922;-92
2023/08/27 07:00:34;;;;;;;;;;;;;;;;;;4953929;28;19910;-92
2023/08/27 07:02:59;;;;;;;;;;;;;;;;;;4942384;28;19914;-93
2023/08/27 07:05:25;;;;;;;;;;;;;;;;;;4940099;28;19941;-92
2023/08/27 07:07:51;;;;;;;;;;;;;;;;;;4941017;28;20306;-92
2023/08/27 07:10:29;;;;;;;;;;;;;;;;;;4932135;28;19969;-92
2023/08/27 07:12:54;;;;;;;;;;;;;;;;;;4933308;28;20282;-91
2023/08/27 07:15:20;;;;;;;;;;;;;;;;;;4932471;28;19953;-91
2023/08/27 07:17:46;;;;;;;;;;;;;;;;;;4952319;28;19950;-92
2023/08/27 07:20:13;;;;;;;;;;;;;;;;;;4934166;29;19953;-91
2023/08/27 07:22:46;;;;;;;;;;;;;;;;;;4942397;28;20009;-91
2023/08/27 07:25:12;;;;;;;;;;;;;;;;;;4919137;29;20422;-89
2023/08/27 07:27:38;;;;;;;;;;;;;;;;;;4913373;29;19919;-91
2023/08/27 07:30:04;;;;;;;;;;;;;;;;;;4911345;29;19947;-90
2023/08/27 07:32:31;;;;;;;;;;;;;;;;;;4912767;29;19987;-91
2023/08/27 07:34:57;;;;;;;;;;;;;;;;;;4917357;29;19922;-92
2023/08/27 07:37:23;;;;;;;;;;;;;;;;;;4927380;29;20748;-91
2023/08/27 07:39:49;;;;;;;;;;;;;;;;;;4917529;29;19942;-90
2023/08/27 07:42:15;;;;;;;;;;;;;;;;;;4911432;29;19919;-91
2023/08/27 07:44:41;;;;;;;;;;;;;;;;;;4915581;29;19919;-91
2023/08/27 07:47:11;;;;;;;;;;;;;;;;;;4916254;29;19919;-92
2023/08/27 07:49:37;;;;;;;;;;;;;;;;;;4915990;29;19922;-91
2023/08/27 07:52:02;;;;;;;;;;;;;;;;;;4915836;29;19911;-93
2023/08/27 07:54:32;;;;;;;;;;;;;;;;;;4933088;29;19918;-93
2023/08/27 07:56:58;;;;;;;;;;;;;;;;;;4913408;29;19921;-92
2023/08/27 07:59:24;;;;;;;;;;;;;;;;;;4915416;29;19919;-92
2023/08/27 08:01:53;;;;;;;;;;;;;;;;;;4919783;29;19907;-92
2023/08/27 08:04:19;;;;;;;;;;;;;;;;;;4925627;29;19957;-92
2023/08/27 08:06:45;;;;;;;;;;;;;;;;;;4919466;29;19907;-92
2023/08/27 08:09:13;;;;;;;;;;;;;;;;;;4914840;29;19943;-92
2023/08/27 08:11:39;;;;;;;;;;;;;;;;;;4931734;29;19953;-91
2023/08/27 08:14:05;;;;;;;;;;;;;;;;;;4913936;29;20367;-92
2023/08/27 08:16:31;;;;;;;;;;;;;;;;;;4920016;29;19921;-91
2023/08/27 08:18:57;;;;;;;;;;;;;;;;;;4915054;29;19918;-93
2023/08/27 08:21:23;;;;;;;;;;;;;;;;;;4912282;29;20009;-90
2023/08/27 08:23:49;;;;;;;;;;;;;;;;;;4919108;28;19922;-92
2023/08/27 08:26:15;;;;;;;;;;;;;;;;;;4916300;29;19918;-92
2023/08/27 08:28:41;;;;;;;;;;;;;;;;;;4918719;29;19911;-92
2023/08/27 08:31:14;;;;;;;;;;;;;;;;;;4915782;29;19930;-93
2023/08/27 08:33:40;;;;;;;;;;;;;;;;;;4913158;29;20016;-92
2023/08/27 08:36:09;;;;;;;;;;;;;;;;;;4924056;29;19918;-92
2023/08/27 08:38:35;;;;;;;;;;;;;;;;;;4912618;29;19926;-93
2023/08/27 08:41:02;;;;;;;;;;;;;;;;;;4916656;29;19911;-92
2023/08/27 08:43:28;;;;;;;;;;;;;;;;;;4918670;29;19974;-92
2023/08/27 08:46:05;;;;;;;;;;;;;;;;;;4920786;29;19914;-93
2023/08/27 08:48:33;;;;;;;;;;;;;;;;;;4914191;29;19915;-93
2023/08/27 08:50:59;;;;;;;;;;;;;;;;;;4907631;29;19938;-94
2023/08/27 08:53:37;;;;;;;;;;;;;;;;;;4914249;29;19917;-93
2023/08/27 08:56:07;;;;;;;;;;;;;;;;;;4931866;29;19911;-94
2023/08/27 08:58:33;;;;;;;;;;;;;;;;;;4917915;29;19918;-93
2023/08/27 09:01:03;;;;;;;;;;;;;;;;;;4913747;29;19915;-94
2023/08/27 09:03:45;;;;;;;;;;;;;;;;;;4927778;29;19918;-90
2023/08/27 09:06:11;;;;;;;;;;;;;;;;;;4910877;29;19915;-90
2023/08/27 09:08:37;;;;;;;;;;;;;;;;;;4909852;29;19914;-90
2023/08/27 09:11:09;;;;;;;;;;;;;;;;;;4914009;29;20055;-91
2023/08/27 09:13:36;;;;;;;;;;;;;;;;;;4927256;29;19915;-91
2023/08/27 09:16:02;;;;;;;;;;;;;;;;;;4912933;29;19911;-90
2023/08/27 09:18:40;;;;;;;;;;;;;;;;;;4933325;29;19918;-91
2023/08/27 09:21:17;;;;;;;;;;;;;;;;;;4935230;29;19926;-92
2023/08/27 09:23:45;;;;;;;;;;;;;;;;;;4937077;28;19925;-91
2023/08/27 09:26:14;;;;;;;;;;;;;;;;;;4928212;28;19950;-90
2023/08/27 09:28:40;;;;;;;;;;;;;;;;;;4931248;28;19915;-90
2023/08/27 09:31:06;;;;;;;;;;;;;;;;;;4922453;29;20001;-90
2023/08/27 09:33:32;;;;;;;;;;;;;;;;;;4927102;29;19961;-90
2023/08/27 09:35:57;;;;;;;;;;;;;;;;;;4932230;29;19945;-90
2023/08/27 09:38:24;;;;;;;;;;;;;;;;;;4931202;29;19919;-89
2023/08/27 09:40:50;;;;;;;;;;;;;;;;;;4926646;29;20001;-88
2023/08/27 09:43:17;;;;;;;;;;;;;;;;;;4928089;28;19967;-89
2023/08/27 09:45:43;;;;;;;;;;;;;;;;;;4925479;28;20423;-91
2023/08/27 09:48:09;;;;;;;;;;;;;;;;;;4926197;28;19946;-92
2023/08/27 09:50:35;;;;;;;;;;;;;;;;;;4929623;29;19915;-91
2023/08/27 09:53:01;;;;;;;;;;;;;;;;;;4933183;28;19919;-91
2023/08/27 09:55:27;;;;;;;;;;;;;;;;;;4937337;29;20407;-90
2023/08/27 09:57:55;;;;;;;;;;;;;;;;;;4927814;28;19915;-93
2023/08/27 10:00:22;;;;;;;;;;;;;;;;;;4933491;29;19910;-93
2023/08/27 10:02:49;;;;;;;;;;;;;;;;;;4946140;28;19918;-93
2023/08/27 10:05:15;;;;;;;;;;;;;;;;;;4929472;28;19910;-92
2023/08/27 10:07:57;;;;;;;;;;;;;;;;;;4928690;29;19917;-92
2023/08/27 10:10:24;;;;;;;;;;;;;;;;;;4928678;29;19914;-92
2023/08/27 10:12:50;;;;;;;;;;;;;;;;;;4925966;29;20198;-93
2023/08/27 10:15:16;;;;;;;;;;;;;;;;;;4929117;29;19917;-92
2023/08/27 10:17:42;;;;;;;;;;;;;;;;;;4926051;28;19915;-93
2023/08/27 10:20:08;;;;;;;;;;;;;;;;;;4931092;28;19914;-93
2023/08/27 10:22:34;;;;;;;;;;;;;;;;;;4934199;28;19925;-92
2023/08/27 10:25:00;;;;;;;;;;;;;;;;;;4941577;28;19970;-92
2023/08/27 10:27:26;;;;;;;;;;;;;;;;;;4921647;28;19911;-92
2023/08/27 10:29:52;;;;;;;;;;;;;;;;;;4927509;29;19917;-93
2023/08/27 10:32:18;;;;;;;;;;;;;;;;;;4926846;28;19945;-93
2023/08/27 10:34:45;;;;;;;;;;;;;;;;;;4945688;28;19917;-94
2023/08/27 10:37:12;;;;;;;;;;;;;;;;;;4922557;28;20009;-94
2023/08/27 10:39:38;;;;;;;;;;;;;;;;;;4939317;28;19917;-94
2023/08/27 10:42:04;;;;;;;;;;;;;;;;;;4925429;28;19915;-94
2023/08/27 10:44:30;;;;;;;;;;;;;;;;;;4921702;29;19910;-93
2023/08/27 10:46:56;;;;;;;;;;;;;;;;;;4926156;28;20158;-93
2023/08/27 10:49:22;;;;;;;;;;;;;;;;;;4927017;29;19921;-93
2023/08/27 10:51:48;;;;;;;;;;;;;;;;;;4925612;28;20391;-93
2023/08/27 10:54:15;;;;;;;;;;;;;;;;;;4929898;29;19938;-91
2023/08/27 10:56:41;;;;;;;;;;;;;;;;;;4927260;29;20009;-93
2023/08/27 10:59:07;;;;;;;;;;;;;;;;;;4934919;29;19921;-93
2023/08/27 11:01:33;;;;;;;;;;;;;;;;;;4946000;28;19914;-94
2023/08/27 11:03:59;;;;;;;;;;;;;;;;;;4926703;29;19962;-93
2023/08/27 11:06:26;;;;;;;;;;;;;;;;;;4926387;28;19910;-94
2023/08/27 11:08:52;;;;;;;;;;;;;;;;;;4926322;29;19927;-92
2023/08/27 11:11:27;;;;;;;;;;;;;;;;;;4931130;28;19996;-91
2023/08/27 11:13:53;;;;;;;;;;;;;;;;;;4929634;29;20231;-91
2023/08/27 11:16:28;;;;;;;;;;;;;;;;;;4944851;28;19930;-91
2023/08/27 11:18:54;;;;;;;;;;;;;;;;;;4942588;28;19919;-92
2023/08/27 11:21:23;;;;;;;;;;;;;;;;;;4933507;29;19925;-91
2023/08/27 11:23:51;;;;;;;;;;;;;;;;;;4930133;28;20382;-91
2023/08/27 11:26:17;;;;;;;;;;;;;;;;;;4953570;28;19972;-91
2023/08/27 11:28:44;;;;;;;;;;;;;;;;;;4938272;28;20394;-92
2023/08/27 11:31:10;;;;;;;;;;;;;;;;;;4936816;29;19910;-91
2023/08/27 11:33:37;;;;;;;;;;;;;;;;;;4952632;28;19910;-91
2023/08/27 11:36:04;;;;;;;;;;;;;;;;;;4938300;29;19914;-91
2023/08/27 11:38:31;;;;;;;;;;;;;;;;;;4940699;28;19928;-91
2023/08/27 11:40:57;;;;;;;;;;;;;;;;;;4933592;29;20274;-91
2023/08/27 11:43:24;;;;;;;;;;;;;;;;;;4953176;28;19985;-91
2023/08/27 11:45:50;;;;;;;;;;;;;;;;;;4939103;29;19926;-91
2023/08/27 11:48:17;;;;;;;;;;;;;;;;;;4936456;28;20352;-91
2023/08/27 11:50:43;;;;;;;;;;;;;;;;;;4936988;29;19918;-91
2023/08/27 11:53:10;;;;;;;;;;;;;;;;;;4953420;28;19926;-91
2023/08/27 11:55:36;;;;;;;;;;;;;;;;;;4932947;29;20383;-89
2023/08/27 11:58:04;;;;;;;;;;;;;;;;;;4932926;28;19919;-90
2023/08/27 12:00:32;;;;;;;;;;;;;;;;;;4932372;29;20438;-89
2023/08/27 12:02:58;;;;;;;;;;;;;;;;;;4937157;28;19914;-91
2023/08/27 12:05:27;;;;;;;;;;;;;;;;;;4930920;28;19921;-90
2023/08/27 12:07:53;;;;;;;;;;;;;;;;;;4933741;28;19912;-90
2023/08/27 12:10:21;;;;;;;;;;;;;;;;;;4935288;29;19937;-89
2023/08/27 12:12:47;;;;;;;;;;;;;;;;;;4933227;28;20490;-90
2023/08/27 12:15:13;;;;;;;;;;;;;;;;;;4948285;28;19919;-90
2023/08/27 12:17:38;;;;;;;;;;;;;;;;;;4938395;28;19973;-91
2023/08/27 12:20:07;;;;;;;;;;;;;;;;;;4932369;28;19953;-89
2023/08/27 12:22:40;;;;;;;;;;;;;;;;;;4935942;28;19978;-91
2023/08/27 12:25:06;;;;;;;;;;;;;;;;;;4929379;29;19925;-92
2023/08/27 12:27:32;;;;;;;;;;;;;;;;;;4921397;29;19985;-91
2023/08/27 12:29:58;;;;;;;;;;;;;;;;;;4911328;29;19915;-92
2023/08/27 12:32:33;;;;;;;;;;;;;;;;;;4914607;29;19911;-92
2023/08/27 12:34:58;;;;;;;;;;;;;;;;;;4918541;29;19965;-92
2023/08/27 12:37:25;;;;;;;;;;;;;;;;;;4916501;29;19926;-91
2023/08/27 12:39:51;;;;;;;;;;;;;;;;;;4911540;29;19953;-91
2023/08/27 12:42:17;;;;;;;;;;;;;;;;;;4921505;29;20039;-91
2023/08/27 12:44:43;;;;;;;;;;;;;;;;;;4918577;29;20001;-92
2023/08/27 12:47:09;;;;;;;;;;;;;;;;;;4910049;29;19925;-91
2023/08/27 12:49:35;;;;;;;;;;;;;;;;;;4922235;29;19910;-92
2023/08/27 12:52:01;;;;;;;;;;;;;;;;;;4930976;29;19911;-92
2023/08/27 12:54:28;;;;;;;;;;;;;;;;;;4913922;29;20097;-91
2023/08/27 12:56:55;;;;;;;;;;;;;;;;;;4915139;29;20375;-92
2023/08/27 12:59:21;;;;;;;;;;;;;;;;;;4934855;29;20017;-92
2023/08/27 13:01:47;;;;;;;;;;;;;;;;;;4909742;29;19922;-92
2023/08/27 13:04:13;;;;;;;;;;;;;;;;;;4911720;29;19934;-92
2023/08/27 13:06:43;;;;;;;;;;;;;;;;;;4918349;29;19934;-92
2023/08/27 13:09:09;;;;;;;;;;;;;;;;;;4915800;29;19911;-90
2023/08/27 13:11:35;;;;;;;;;;;;;;;;;;4910971;29;19937;-92
2023/08/27 13:14:01;;;;;;;;;;;;;;;;;;4910590;29;20353;-92
2023/08/27 13:16:27;;;;;;;;;;;;;;;;;;4918049;29;19965;-92
2023/08/27 13:18:57;;;;;;;;;;;;;;;;;;4912621;29;19953;-93
2023/08/27 13:21:23;;;;;;;;;;;;;;;;;;4928825;29;19915;-92
2023/08/27 13:23:55;;;;;;;;;;;;;;;;;;4930470;28;19929;-92
2023/08/27 13:26:21;;;;;;;;;;;;;;;;;;4936910;29;19982;-93
2023/08/27 13:28:47;;;;;;;;;;;;;;;;;;4930035;28;19953;-91
2023/08/27 13:31:13;;;;;;;;;;;;;;;;;;4944295;28;20002;-91
2023/08/27 13:33:39;;;;;;;;;;;;;;;;;;4928966;29;19915;-91
2023/08/27 13:36:09;;;;;;;;;;;;;;;;;;4934261;28;19925;-91
2023/08/27 13:38:35;;;;;;;;;;;;;;;;;;4934638;28;19921;-90
2023/08/27 13:41:01;;;;;;;;;;;;;;;;;;4937490;29;19910;-90
2023/08/27 13:43:27;;;;;;;;;;;;;;;;;;4935525;28;19915;-90
2023/08/27 13:45:53;;;;;;;;;;;;;;;;;;4942580;28;19917;-89
2023/08/27 13:48:20;;;;;;;;;;;;;;;;;;4930278;28;19915;-90
2023/08/27 13:50:46;;;;;;;;;;;;;;;;;;4936126;29;19910;-89
2023/08/27 13:53:12;;;;;;;;;;;;;;;;;;4933211;29;19911;-90
2023/08/27 13:55:41;;;;;;;;;;;;;;;;;;4936511;28;19930;-90
2023/08/27 13:58:07;;;;;;;;;;;;;;;;;;4927830;29;20005;-91
2023/08/27 14:00:34;;;;;;;;;;;;;;;;;;4940388;28;20046;-90
2023/08/27 14:03:00;;;;;;;;;;;;;;;;;;4932447;29;19918;-89
2023/08/27 14:05:27;;;;;;;;;;;;;;;;;;4932419;28;19961;-90
2023/08/27 14:07:53;;;;;;;;;;;;;;;;;;4928294;28;19917;-88
2023/08/27 14:10:19;;;;;;;;;;;;;;;;;;4926000;28;19918;-89
2023/08/27 14:12:46;;;;;;;;;;;;;;;;;;4928559;28;19925;-88
2023/08/27 14:15:12;;;;;;;;;;;;;;;;;;4926011;29;19918;-89
2023/08/27 14:17:37;;;;;;;;;;;;;;;;;;4927940;28;19918;-89
2023/08/27 14:20:03;;;;;;;;;;;;;;;;;;4940598;28;19942;-88
2023/08/27 14:22:29;;;;;;;;;;;;;;;;;;4929566;28;19914;-88
2023/08/27 14:24:55;;;;;;;;;;;;;;;;;;4928855;28;19919;-89
2023/08/27 14:27:22;;;;;;;;;;;;;;;;;;4941925;28;19919;-88
2023/08/27 14:29:48;;;;;;;;;;;;;;;;;;4927138;29;19977;-88
2023/08/27 14:32:13;;;;;;;;;;;;;;;;;;4931111;28;19941;-89
2023/08/27 14:34:39;;;;;;;;;;;;;;;;;;4924919;29;19918;-88
2023/08/27 14:37:05;;;;;;;;;;;;;;;;;;4927015;28;19911;-91
2023/08/27 14:39:32;;;;;;;;;;;;;;;;;;4927044;29;19925;-91
2023/08/27 14:41:58;;;;;;;;;;;;;;;;;;4928653;28;19926;-91
2023/08/27 14:44:24;;;;;;;;;;;;;;;;;;4930530;29;20297;-92
2023/08/27 14:46:50;;;;;;;;;;;;;;;;;;4931344;28;20377;-92
2023/08/27 14:49:16;;;;;;;;;;;;;;;;;;4930216;28;19919;-91
2023/08/27 14:51:42;;;;;;;;;;;;;;;;;;4929117;28;19965;-93
2023/08/27 14:54:08;;;;;;;;;;;;;;;;;;4927431;29;19918;-91
2023/08/27 14:56:34;;;;;;;;;;;;;;;;;;4929872;28;19910;-92
2023/08/27 14:59:00;;;;;;;;;;;;;;;;;;4929881;28;20393;-92
2023/08/27 15:01:26;;;;;;;;;;;;;;;;;;4932833;28;19914;-93
2023/08/27 15:03:52;;;;;;;;;;;;;;;;;;4936065;29;20232;-92
2023/08/27 15:06:18;;;;;;;;;;;;;;;;;;4932608;28;20049;-93
2023/08/27 15:08:47;;;;;;;;;;;;;;;;;;4935645;28;21160;-90
2023/08/27 15:11:16;;;;;;;;;;;;;;;;;;4946886;28;20311;-93
2023/08/27 15:13:42;;;;;;;;;;;;;;;;;;4932461;29;20294;-92
2023/08/27 15:16:08;;;;;;;;;;;;;;;;;;4933335;28;19910;-94
2023/08/27 15:18:34;;;;;;;;;;;;;;;;;;4927906;28;19918;-92
2023/08/27 15:21:00;;;;;;;;;;;;;;;;;;4943963;28;19911;-92
2023/08/27 15:23:26;;;;;;;;;;;;;;;;;;4931763;28;19923;-92
2023/08/27 15:25:52;;;;;;;;;;;;;;;;;;4931517;28;20364;-93
2023/08/27 15:28:18;;;;;;;;;;;;;;;;;;4924240;29;19914;-94
2023/08/27 15:30:44;;;;;;;;;;;;;;;;;;4928870;28;19918;-91
2023/08/27 15:33:22;;;;;;;;;;;;;;;;;;4934665;28;19925;-93
2023/08/27 15:35:48;;;;;;;;;;;;;;;;;;4931441;28;20208;-94
2023/08/27 15:38:17;;;;;;;;;;;;;;;;;;4928160;29;19970;-94
2023/08/27 15:46:33;;;;;;;;;;;;;;;;;;4901832;28;19918;-94
2023/08/27 15:49:05;;;;;;;;;;;;;;;;;;4929928;28;20037;-94
2023/08/27 15:51:36;;;;;;;;;;;;;;;;;;4933844;28;20363;-94
2023/08/27 15:54:10;;;;;;;;;;;;;;;;;;4934638;28;20013;-93
2023/08/27 15:56:46;;;;;;;;;;;;;;;;;;4937774;28;19918;-93
2023/08/27 15:59:18;;;;;;;;;;;;;;;;;;4921316;28;19919;-94
2023/08/27 16:01:44;;;;;;;;;;;;;;;;;;4935551;29;19922;-93
2023/08/27 16:04:25;;;;;;;;;;;;;;;;;;4951116;28;19918;-93
2023/08/27 16:07:01;;;;;;;;;;;;;;;;;;;;;
2023/08/27 16:09:38;;;;;;;;;;;;;;;;;;4954760;28;20005;-94
2023/08/27 16:12:11;;;;;;;;;;;;;;;;;;4933601;28;19971;-94
2023/08/27 16:17:23;;;;;;;;;;;;;;;;;;4949741;28;19910;-94
2023/08/27 16:19:50;;;;;;;;;;;;;;;;;;4931943;29;19910;-94
2023/08/27 16:22:32;;;;;;;;;;;;;;;;;;;;;
2023/08/27 16:25:07;;;;;;;;;;;;;;;;;;4950092;28;20545;-94
2023/08/27 16:27:42;;;;;;;;;;;;;;;;;;4899081;29;20022;-95
2023/08/27 16:30:08;;;;;;;;;;;;;;;;;;4877482;29;20251;-95
2023/08/27 16:32:42;;;;;;;;;;;;;;;;;;4895414;29;19919;-95
2023/08/27 16:35:08;;;;;;;;;;;;;;;;;;4895169;29;19987;-94
2023/08/27 16:37:34;;;;;;;;;;;;;;;;;;4895154;29;20018;-94
2023/08/27 16:40:00;;;;;;;;;;;;;;;;;;4875974;29;19919;-93
2023/08/27 16:42:26;;;;;;;;;;;;;;;;;;4878868;29;20624;-95
2023/08/27 16:44:52;;;;;;;;;;;;;;;;;;4881881;29;19975;-93
2023/08/27 16:47:21;;;;;;;;;;;;;;;;;;4881212;29;19919;-92
2023/08/27 16:50:02;;;;;;;;;;;;;;;;;;4879030;29;20329;-94
2023/08/27 16:52:33;;;;;;;;;;;;;;;;;;4916954;28;20473;-92
2023/08/27 16:54:59;;;;;;;;;;;;;;;;;;4935475;28;21134;-94
2023/08/27 16:57:25;;;;;;;;;;;;;;;;;;4941274;28;19915;-91